createdAt,value
2022-11-16T00:04:04.730Z,20.05
2022-11-16T00:14:07.997Z,28.17
2022-11-16T00:24:13.730Z,26.95
2022-11-16T00:34:17.059Z,24.67
2022-11-16T00:44:21.326Z,25.80
2022-11-16T00:54:24.352Z,26.13
2022-11-16T01:04:28.761Z,24.52
2022-11-16T01:14:31.789Z,24.87
2022-11-16T01:24:36.175Z,24.15
2022-11-16T01:34:39.348Z,23.50
2022-11-16T01:45:00.302Z,26.90
2022-11-16T01:55:04.051Z,20.42
2022-11-16T02:05:22.341Z,25.90
2022-11-16T02:15:41.525Z,27.58
2022-11-16T02:26:01.111Z,24.08
2022-11-16T02:36:09.956Z,19.60
2022-11-16T02:46:20.858Z,13.15
2022-11-16T02:56:25.681Z,14.55
2022-11-16T03:06:32.731Z,16.30
2022-11-16T03:16:39.835Z,10.73
2022-11-16T03:26:50.413Z,7.03
2022-11-16T03:36:58.035Z,4.80
2022-11-16T03:47:02.427Z,4.65
2022-11-16T03:57:06.851Z,8.20
2022-11-16T04:07:27.978Z,9.63
2022-11-16T04:17:50.213Z,11.00
2022-11-16T04:28:12.539Z,8.20
2022-11-16T04:38:17.826Z,6.53
2022-11-16T04:48:22.117Z,10.90
2022-11-16T04:58:30.536Z,10.05
2022-11-16T05:08:34.006Z,12.60
2022-11-16T05:18:38.919Z,15.00
2022-11-16T05:38:52.643Z,8.47
2022-11-16T05:49:00.324Z,21.38
2022-11-16T05:59:05.091Z,21.08
2022-11-16T06:19:15.064Z,22.63
2022-11-16T06:29:18.094Z,23.23
2022-11-16T06:39:22.752Z,19.08
2022-11-16T06:49:26.037Z,22.40
2022-11-16T06:59:35.079Z,24.85
2022-11-16T07:09:38.231Z,15.40
2022-11-16T07:19:42.807Z,19.17
2022-11-16T07:29:46.731Z,25.35
2022-11-16T07:40:01.891Z,33.53
2022-11-16T08:00:13.246Z,27.33
2022-11-16T08:10:31.093Z,25.08
2022-11-16T08:20:36.780Z,15.77
2022-11-16T08:30:40.567Z,27.35
2022-11-16T08:40:46.019Z,18.83
2022-11-16T09:01:15.998Z,18.73
2022-11-16T09:11:21.801Z,20.95
2022-11-16T09:21:27.827Z,12.63
2022-11-16T09:31:34.773Z,17.48
2022-11-16T09:41:59.333Z,15.60
2022-11-16T09:52:07.171Z,12.47
2022-11-16T10:02:22.013Z,10.98
2022-11-16T10:12:34.984Z,15.10
2022-11-16T10:22:50.122Z,8.90
2022-11-16T10:43:11.596Z,13.98
2022-11-16T10:53:16.232Z,13.02
2022-11-16T11:03:31.717Z,11.60
2022-11-16T11:13:35.357Z,8.57
2022-11-16T11:23:46.525Z,10.23
2022-11-16T11:33:52.185Z,13.48
2022-11-16T11:44:04.370Z,10.63
2022-11-16T11:54:15.149Z,7.60
2022-11-16T12:04:50.374Z,10.13
2022-11-16T12:25:30.341Z,11.52
2022-11-16T12:35:55.284Z,13.25
2022-11-16T12:46:07.236Z,7.30
2022-11-16T12:56:18.777Z,8.98
2022-11-16T13:06:29.931Z,10.90
2022-11-16T13:16:32.965Z,7.88
2022-11-16T13:26:46.005Z,13.30
2022-11-16T13:36:48.989Z,10.93
2022-11-16T13:46:57.197Z,11.85
2022-11-16T13:57:02.392Z,13.85
2022-11-16T14:07:26.917Z,7.70
2022-11-16T14:17:51.788Z,8.57
2022-11-16T14:28:22.050Z,12.90
2022-11-16T14:38:32.984Z,13.60
2022-11-16T14:48:44.712Z,13.38
2022-11-16T14:58:54.872Z,9.40
2022-11-16T15:09:03.630Z,12.38
2022-11-16T15:19:13.486Z,17.83
2022-11-16T15:29:20.906Z,12.07
2022-11-16T15:39:25.540Z,18.08
2022-11-16T15:49:32.372Z,12.63
2022-11-16T15:59:38.196Z,12.98
2022-11-16T16:09:43.659Z,15.38
2022-11-16T16:19:48.496Z,10.90
2022-11-16T16:29:54.478Z,39.13
2022-11-16T16:39:57.599Z,39.58
2022-11-16T16:50:02.034Z,48.25
2022-11-16T17:00:08.609Z,39.83
2022-11-16T17:10:12.943Z,20.02
2022-11-16T17:20:17.076Z,10.70
2022-11-16T17:30:21.581Z,17.07
2022-11-16T17:40:24.832Z,13.23
2022-11-16T17:50:29.228Z,8.32
2022-11-16T18:00:32.194Z,6.47
2022-11-16T18:10:38.117Z,9.80
2022-11-16T18:20:41.104Z,8.90
2022-11-16T18:30:45.520Z,9.15
2022-11-16T18:41:03.010Z,10.50
2022-11-16T18:51:07.573Z,11.20
2022-11-16T19:01:13.596Z,13.47
2022-11-16T19:11:18.552Z,9.27
2022-11-16T19:21:22.289Z,8.43
2022-11-16T19:31:28.867Z,6.35
2022-11-16T19:41:32.071Z,10.65
2022-11-16T19:51:36.742Z,13.55
2022-11-16T20:01:39.860Z,10.50
2022-11-16T20:11:44.245Z,10.23
2022-11-16T20:21:47.390Z,9.50
2022-11-16T20:31:51.872Z,10.85
2022-11-16T20:41:54.797Z,6.33
2022-11-16T20:51:59.164Z,9.07
2022-11-16T21:02:02.115Z,12.97
2022-11-16T21:12:23.943Z,7.80
2022-11-16T21:22:31.070Z,15.20
2022-11-16T21:32:36.539Z,10.75
2022-11-16T21:42:39.724Z,7.53
2022-11-16T21:52:43.989Z,10.63
2022-11-16T22:02:47.043Z,12.00
2022-11-16T22:12:51.495Z,14.10
2022-11-16T22:22:54.418Z,12.20
2022-11-16T22:32:58.919Z,13.38
2022-11-16T22:43:01.921Z,15.60
2022-11-16T22:53:06.243Z,6.50
2022-11-16T23:03:09.186Z,11.03
2022-11-16T23:13:31.133Z,6.60
2022-11-16T23:23:51.544Z,12.43
2022-11-16T23:33:55.827Z,8.75
2022-11-16T23:43:58.990Z,14.47
2022-11-16T23:54:04.816Z,13.02
